createdAt,value
2022-08-03T00:00:48.380Z,48.65
2022-08-03T00:01:48.679Z,48.74
2022-08-03T00:02:49.049Z,49.14
2022-08-03T00:03:49.271Z,48.94
2022-08-03T00:04:49.568Z,48.94
2022-08-03T00:06:03.742Z,48.82
2022-08-03T00:06:51.104Z,48.92
2022-08-03T00:07:50.390Z,49.02
2022-08-03T00:08:50.704Z,49.11
2022-08-03T00:09:51.033Z,49.02
2022-08-03T00:10:51.332Z,49.02
2022-08-03T00:11:51.606Z,49.11
2022-08-03T00:12:51.942Z,49.21
2022-08-03T00:13:52.253Z,49.51
2022-08-03T00:14:52.533Z,49.51
2022-08-03T00:15:52.766Z,49.41
2022-08-03T00:16:53.193Z,49.41
2022-08-03T00:17:54.126Z,49.51
2022-08-03T00:18:53.613Z,49.81
2022-08-03T00:19:53.883Z,50.01
2022-08-03T00:20:54.166Z,50.23
2022-08-03T00:21:54.508Z,50.43
2022-08-03T00:22:54.800Z,50.83
2022-08-03T00:23:54.994Z,51.05
2022-08-03T00:24:55.327Z,51.25
2022-08-03T00:25:55.580Z,51.35
2022-08-03T00:26:55.927Z,51.54
2022-08-03T00:27:56.212Z,51.65
2022-08-03T00:28:56.646Z,51.75
2022-08-03T00:29:57.442Z,51.77
2022-08-03T00:30:57.083Z,51.77
2022-08-03T00:32:00.235Z,51.87
2022-08-03T00:32:57.741Z,51.97
2022-08-03T00:33:59.074Z,51.97
2022-08-03T00:34:59.309Z,51.87
2022-08-03T00:35:58.615Z,51.87
2022-08-03T00:36:58.905Z,51.87
2022-08-03T00:37:59.148Z,51.87
2022-08-03T00:38:59.482Z,51.97
2022-08-03T00:39:59.961Z,52.07
2022-08-03T00:41:00.049Z,52.17
2022-08-03T00:42:00.355Z,52.26
2022-08-03T00:43:00.705Z,52.37
2022-08-03T00:44:00.987Z,52.59
2022-08-03T00:45:01.265Z,52.79
2022-08-03T00:46:01.557Z,52.99
2022-08-03T00:47:01.802Z,53.28
2022-08-03T00:48:02.101Z,53.39
2022-08-03T00:49:02.481Z,53.71
2022-08-03T00:50:02.688Z,54.01
2022-08-03T00:51:02.980Z,54.21
2022-08-03T00:52:07.810Z,54.21
2022-08-03T00:53:04.567Z,54.41
2022-08-03T00:54:03.921Z,54.50
2022-08-03T00:55:04.166Z,54.60
2022-08-03T00:56:04.425Z,54.60
2022-08-03T00:57:04.684Z,54.60
2022-08-03T00:58:04.983Z,54.80
2022-08-03T00:59:05.351Z,54.80
2022-08-03T01:00:05.569Z,54.90
2022-08-03T01:01:05.977Z,55.10
2022-08-03T01:02:06.186Z,55.40
2022-08-03T01:03:06.404Z,55.60
2022-08-03T01:04:06.680Z,55.50
2022-08-03T01:05:06.960Z,55.40
2022-08-03T01:06:07.284Z,55.40
2022-08-03T01:07:10.859Z,55.20
2022-08-03T01:08:07.836Z,55.30
2022-08-03T01:09:08.122Z,55.30
2022-08-03T01:10:08.399Z,55.30
2022-08-03T01:11:08.678Z,55.40
2022-08-03T01:12:08.978Z,55.38
2022-08-03T01:13:59.097Z,55.08
2022-08-03T01:14:18.600Z,55.18
2022-08-03T01:15:10.868Z,54.97
2022-08-03T01:16:10.096Z,54.97
2022-08-03T01:17:11.696Z,54.97
2022-08-03T01:18:10.694Z,54.88
2022-08-03T01:19:10.974Z,54.97
2022-08-03T01:20:11.187Z,54.97
2022-08-03T01:21:11.523Z,55.08
2022-08-03T01:22:11.856Z,55.27
2022-08-03T01:23:12.182Z,55.38
2022-08-03T01:24:12.393Z,55.80
2022-08-03T01:25:12.715Z,55.90
2022-08-03T01:26:12.976Z,56.10
2022-08-03T01:27:13.284Z,56.10
2022-08-03T01:28:13.633Z,56.49
2022-08-03T01:29:13.908Z,56.72
2022-08-03T01:30:14.163Z,56.72
2022-08-03T01:31:14.471Z,56.72
2022-08-03T01:32:59.921Z,56.82
2022-08-03T01:33:15.970Z,57.15
2022-08-03T01:34:15.239Z,57.24
2022-08-03T01:35:15.629Z,57.35
2022-08-03T01:36:15.802Z,57.45
2022-08-03T01:37:16.122Z,57.64
2022-08-03T01:38:16.430Z,57.75
2022-08-03T01:39:16.747Z,57.84
2022-08-03T01:40:16.995Z,57.94
2022-08-03T01:41:17.362Z,58.04
2022-08-03T01:42:18.060Z,58.24
2022-08-03T01:44:28.544Z,58.44
2022-08-03T01:44:29.602Z,58.57
2022-08-03T01:45:19.433Z,58.67
2022-08-03T01:46:18.727Z,58.76
2022-08-03T01:47:18.934Z,58.97
2022-08-03T01:48:19.260Z,59.27
2022-08-03T01:49:19.622Z,59.36
2022-08-03T01:50:19.947Z,59.69
2022-08-03T01:51:20.255Z,59.59
2022-08-03T01:52:20.632Z,59.30
2022-08-03T01:53:20.843Z,58.50
2022-08-03T01:54:21.129Z,58.00
2022-08-03T01:55:21.455Z,57.30
2022-08-03T01:56:21.785Z,57.30
2022-08-03T01:57:22.046Z,57.50
2022-08-03T01:58:22.394Z,57.30
2022-08-03T01:59:22.692Z,57.17
2022-08-03T02:00:23.008Z,56.98
2022-08-03T02:01:23.366Z,56.77
2022-08-03T02:02:33.411Z,56.68
2022-08-03T02:03:24.889Z,56.77
2022-08-03T02:04:24.158Z,56.77
2022-08-03T02:05:24.390Z,56.87
2022-08-03T02:07:00.729Z,57.17
2022-08-03T02:07:26.021Z,57.37
2022-08-03T02:08:25.345Z,57.37
2022-08-03T02:09:25.552Z,57.28
2022-08-03T02:10:34.484Z,57.57
2022-08-03T02:11:27.197Z,58.67
2022-08-03T02:12:26.475Z,61.66
2022-08-03T02:13:27.159Z,61.25
2022-08-03T02:14:27.071Z,61.66
2022-08-03T02:15:27.334Z,60.79
2022-08-03T02:16:27.667Z,60.76
2022-08-03T02:17:39.546Z,60.66
2022-08-03T02:18:29.216Z,61.55
2022-08-03T02:19:32.501Z,60.46
2022-08-03T02:20:29.881Z,60.76
2022-08-03T02:21:56.559Z,60.46
2022-08-03T02:22:30.363Z,60.49
2022-08-03T02:23:29.738Z,60.39
2022-08-03T02:24:30.102Z,60.69
2022-08-03T02:25:30.283Z,61.19
2022-08-03T02:26:30.648Z,61.85
2022-08-03T02:27:30.861Z,60.69
2022-08-03T02:28:31.177Z,60.69
2022-08-03T02:29:40.188Z,59.49
2022-08-03T02:30:32.711Z,59.69
2022-08-03T02:31:31.917Z,59.39
2022-08-03T02:32:32.212Z,58.20
2022-08-03T02:33:32.523Z,57.80
2022-08-03T02:34:32.756Z,57.70
2022-08-03T02:35:33.017Z,57.40
2022-08-03T02:36:33.274Z,57.80
2022-08-03T02:37:33.631Z,57.70
2022-08-03T02:38:33.971Z,57.30
2022-08-03T02:39:34.253Z,57.60
2022-08-03T02:40:34.536Z,57.70
2022-08-03T02:41:34.805Z,57.90
2022-08-03T02:42:35.164Z,58.10
2022-08-03T02:44:05.354Z,58.20
2022-08-03T02:44:36.812Z,58.10
2022-08-03T02:45:36.063Z,58.29
2022-08-03T02:46:36.335Z,58.29
2022-08-03T02:47:53.269Z,58.20
2022-08-03T02:48:38.765Z,58.42
2022-08-03T02:49:50.419Z,58.72
2022-08-03T02:50:38.519Z,58.72
2022-08-03T02:51:37.812Z,58.23
2022-08-03T02:52:38.180Z,57.23
2022-08-03T02:53:38.469Z,57.23
2022-08-03T02:54:39.680Z,56.83
2022-08-03T02:55:43.145Z,56.53
2022-08-03T02:56:40.340Z,56.23
2022-08-03T02:57:39.645Z,56.13
2022-08-03T02:58:39.940Z,55.83
2022-08-03T02:59:40.266Z,55.73
2022-08-03T03:00:40.589Z,55.54
2022-08-03T03:01:40.744Z,55.43
2022-08-03T03:02:43.912Z,55.83
2022-08-03T03:03:44.841Z,56.03
2022-08-03T03:04:55.025Z,55.93
2022-08-03T03:05:54.837Z,56.13
2022-08-03T03:06:43.269Z,56.03
2022-08-03T03:07:52.132Z,55.73
2022-08-03T03:08:43.910Z,55.33
2022-08-03T03:09:43.377Z,55.24
2022-08-03T03:10:43.482Z,55.54
2022-08-03T03:11:43.793Z,55.24
2022-08-03T03:12:44.142Z,55.13
2022-08-03T03:13:44.470Z,55.24
2022-08-03T03:14:44.720Z,55.13
2022-08-03T03:15:45.042Z,55.01
2022-08-03T03:16:45.325Z,54.91
2022-08-03T03:17:46.616Z,54.91
2022-08-03T03:18:45.948Z,55.31
2022-08-03T03:19:46.200Z,55.91
2022-08-03T03:20:46.511Z,55.91
2022-08-03T03:21:46.840Z,56.13
2022-08-03T03:22:47.136Z,56.33
2022-08-03T03:23:47.345Z,56.33
2022-08-03T03:24:47.688Z,56.33
2022-08-03T03:25:47.893Z,56.33
2022-08-03T03:26:48.241Z,56.33
2022-08-03T03:27:49.445Z,57.03
2022-08-03T03:28:49.032Z,57.03
2022-08-03T03:29:49.236Z,56.73
2022-08-03T03:30:52.558Z,56.53
2022-08-03T03:31:49.709Z,56.33
2022-08-03T03:32:52.233Z,56.43
2022-08-03T03:33:50.353Z,56.33
2022-08-03T03:34:50.622Z,56.23
2022-08-03T03:35:50.927Z,56.21
2022-08-03T03:36:51.201Z,56.70
2022-08-03T03:37:51.371Z,57.50
2022-08-03T03:38:51.735Z,58.40
2022-08-03T03:39:52.055Z,58.62
2022-08-03T03:40:52.298Z,59.22
2022-08-03T03:41:52.509Z,59.52
2022-08-03T03:42:52.751Z,59.72
2022-08-03T03:43:53.107Z,59.95
2022-08-03T03:44:53.330Z,60.15
2022-08-03T03:45:53.649Z,60.45
2022-08-03T03:46:54.005Z,60.65
2022-08-03T03:47:54.305Z,60.68
2022-08-03T03:48:54.501Z,60.68
2022-08-03T03:49:54.752Z,60.68
2022-08-03T03:50:54.963Z,60.58
2022-08-03T03:51:55.405Z,60.58
2022-08-03T03:52:55.571Z,60.38
2022-08-03T03:53:55.903Z,60.17
2022-08-03T03:55:00.633Z,60.17
2022-08-03T03:55:59.570Z,59.68
2022-08-03T03:56:57.849Z,59.58
2022-08-03T03:57:57.143Z,59.38
2022-08-03T03:58:57.347Z,58.88
2022-08-03T03:59:57.736Z,58.88
2022-08-03T04:00:58.061Z,58.58
2022-08-03T04:01:59.219Z,58.58
2022-08-03T04:02:58.529Z,58.38
2022-08-03T04:03:58.886Z,58.18
2022-08-03T04:04:59.222Z,57.98
2022-08-03T04:05:59.451Z,57.78
2022-08-03T04:06:59.719Z,57.78
2022-08-03T04:07:59.974Z,57.58
2022-08-03T04:09:00.256Z,57.58
2022-08-03T04:10:07.864Z,57.35
2022-08-03T04:11:01.872Z,57.09
2022-08-03T04:12:01.192Z,56.98
2022-08-03T04:13:01.406Z,57.18
2022-08-03T04:14:01.772Z,57.28
2022-08-03T04:15:01.955Z,57.48
2022-08-03T04:16:02.208Z,57.39
2022-08-03T04:17:02.937Z,57.48
2022-08-03T04:18:02.770Z,57.56
2022-08-03T04:19:03.010Z,57.56
2022-08-03T04:20:03.356Z,57.65
2022-08-03T04:21:03.618Z,58.45
2022-08-03T04:22:03.962Z,59.25
2022-08-03T04:23:04.149Z,59.35
2022-08-03T04:24:05.409Z,59.35
2022-08-03T04:25:04.588Z,59.55
2022-08-03T04:26:04.967Z,59.35
2022-08-03T04:27:05.236Z,59.05
2022-08-03T04:28:07.726Z,58.65
2022-08-03T04:29:06.771Z,58.85
2022-08-03T04:30:06.043Z,59.25
2022-08-03T04:31:06.264Z,58.85
2022-08-03T04:32:06.544Z,59.15
2022-08-03T04:33:06.883Z,59.55
2022-08-03T04:34:07.108Z,60.05
2022-08-03T04:35:07.318Z,60.25
2022-08-03T04:36:07.580Z,60.15
2022-08-03T04:37:07.855Z,60.45
2022-08-03T04:38:08.260Z,61.55
2022-08-03T04:39:08.485Z,61.65
2022-08-03T04:40:08.744Z,61.35
2022-08-03T04:41:09.033Z,61.57
2022-08-03T04:42:09.376Z,62.15
2022-08-03T04:43:09.611Z,61.68
2022-08-03T04:44:09.862Z,61.57
2022-08-03T04:45:10.108Z,61.98
2022-08-03T04:46:10.376Z,61.87
2022-08-03T04:47:10.646Z,61.57
2022-08-03T04:48:10.873Z,61.38
2022-08-03T04:49:11.266Z,61.87
2022-08-03T04:50:13.579Z,62.18
2022-08-03T04:51:11.731Z,62.67
2022-08-03T04:52:11.977Z,62.77
2022-08-03T04:53:12.240Z,62.27
2022-08-03T04:54:12.630Z,62.27
2022-08-03T04:55:12.776Z,61.87
2022-08-03T04:56:13.134Z,61.77
2022-08-03T04:57:22.174Z,61.77
2022-08-03T04:58:14.694Z,61.87
2022-08-03T04:59:13.827Z,61.68
2022-08-03T05:00:14.194Z,61.77
2022-08-03T05:01:14.483Z,61.27
2022-08-03T05:02:15.012Z,60.85
2022-08-03T05:03:20.226Z,60.38
2022-08-03T05:04:16.789Z,60.25
2022-08-03T05:05:15.583Z,60.05
2022-08-03T05:06:16.205Z,60.35
2022-08-03T05:07:16.079Z,59.45
2022-08-03T05:08:16.331Z,57.95
2022-08-03T05:09:48.933Z,57.56
2022-08-03T05:10:17.898Z,56.85
2022-08-03T05:11:17.135Z,56.26
2022-08-03T05:12:17.890Z,56.26
2022-08-03T05:13:17.796Z,56.16
2022-08-03T05:14:18.061Z,56.06
2022-08-03T05:15:19.301Z,55.96
2022-08-03T05:16:18.540Z,55.76
2022-08-03T05:17:18.772Z,55.66
2022-08-03T05:18:19.029Z,55.86
2022-08-03T05:19:19.274Z,55.96
2022-08-03T05:20:19.487Z,55.76
2022-08-03T05:21:19.827Z,55.76
2022-08-03T05:22:20.343Z,55.66
2022-08-03T05:23:20.426Z,55.76
2022-08-03T05:24:20.698Z,55.76
2022-08-03T05:25:23.354Z,55.56
2022-08-03T05:26:22.226Z,55.56
2022-08-03T05:27:21.496Z,55.46
2022-08-03T05:28:21.734Z,55.46
2022-08-03T05:29:21.964Z,55.26
2022-08-03T05:30:31.079Z,55.16
2022-08-03T05:31:23.690Z,55.04
2022-08-03T05:32:22.831Z,54.94
2022-08-03T05:33:23.069Z,54.74
2022-08-03T05:34:23.297Z,54.53
2022-08-03T05:35:57.217Z,54.53
2022-08-03T05:36:24.765Z,54.41
2022-08-03T05:37:24.013Z,54.34
2022-08-03T05:38:28.460Z,54.24
2022-08-03T05:39:24.553Z,54.11
2022-08-03T05:40:24.786Z,54.21
2022-08-03T05:41:36.920Z,54.11
2022-08-03T05:42:26.320Z,54.01
2022-08-03T05:43:25.731Z,53.91
2022-08-03T05:44:25.963Z,53.71
2022-08-03T05:45:28.417Z,53.31
2022-08-03T05:46:26.481Z,53.11
2022-08-03T05:47:26.861Z,53.11
2022-08-03T05:48:27.109Z,53.09
2022-08-03T05:49:27.428Z,53.29
2022-08-03T05:50:27.728Z,53.29
2022-08-03T05:51:28.047Z,53.39
2022-08-03T05:52:28.222Z,53.29
2022-08-03T05:53:28.517Z,53.09
2022-08-03T05:54:56.326Z,53.27
2022-08-03T05:55:29.957Z,53.09
2022-08-03T05:56:29.204Z,52.86
2022-08-03T05:57:29.551Z,52.57
2022-08-03T05:58:29.864Z,52.37
2022-08-03T05:59:38.079Z,52.47
2022-08-03T06:00:31.377Z,52.37
2022-08-03T06:01:30.710Z,52.27
2022-08-03T06:02:30.893Z,52.37
2022-08-03T06:03:31.222Z,52.47
2022-08-03T06:04:31.592Z,52.27
2022-08-03T06:05:31.865Z,52.37
2022-08-03T06:06:32.503Z,52.04
2022-08-03T06:07:39.314Z,51.77
2022-08-03T06:08:32.682Z,51.87
2022-08-03T06:10:37.650Z,51.97
2022-08-03T06:10:37.764Z,51.95
2022-08-03T06:11:33.453Z,51.84
2022-08-03T06:12:33.782Z,51.84
2022-08-03T06:13:34.017Z,51.75
2022-08-03T06:14:34.337Z,51.75
2022-08-03T06:15:34.541Z,51.54
2022-08-03T06:16:34.818Z,51.35
2022-08-03T06:17:37.677Z,51.25
2022-08-03T06:18:36.288Z,51.05
2022-08-03T06:19:35.609Z,51.15
2022-08-03T06:20:35.964Z,51.15
2022-08-03T06:21:36.138Z,50.95
2022-08-03T06:22:36.521Z,51.05
2022-08-03T06:23:55.037Z,51.05
2022-08-03T06:24:38.079Z,50.95
2022-08-03T06:25:38.395Z,51.03
2022-08-03T06:26:37.685Z,50.82
2022-08-03T06:27:37.953Z,50.43
2022-08-03T06:28:53.099Z,50.43
2022-08-03T06:29:39.430Z,50.23
2022-08-03T06:30:38.691Z,50.03
2022-08-03T06:31:38.939Z,49.93
2022-08-03T06:32:39.286Z,49.73
2022-08-03T06:33:48.552Z,49.73
2022-08-03T06:34:40.787Z,49.61
2022-08-03T06:35:40.022Z,49.61
2022-08-03T06:36:40.301Z,49.51
2022-08-03T06:37:40.575Z,49.61
2022-08-03T06:38:40.805Z,49.61
2022-08-03T06:39:41.024Z,49.61
2022-08-03T06:40:41.377Z,49.71
2022-08-03T06:41:44.797Z,49.80
2022-08-03T06:42:41.879Z,49.71
2022-08-03T06:44:03.065Z,49.80
2022-08-03T06:44:43.449Z,49.80
2022-08-03T06:45:42.672Z,49.71
2022-08-03T06:46:43.824Z,49.91
2022-08-03T06:47:43.048Z,50.10
2022-08-03T06:48:43.443Z,49.91
2022-08-03T06:49:43.734Z,49.78
2022-08-03T06:50:44.939Z,49.78
2022-08-03T06:52:05.602Z,49.78
2022-08-03T06:52:45.574Z,49.78
2022-08-03T06:53:44.743Z,49.68
2022-08-03T06:54:44.988Z,49.86
2022-08-03T06:55:45.222Z,49.68
2022-08-03T06:56:45.459Z,49.66
2022-08-03T06:57:45.733Z,49.46
2022-08-03T06:58:46.033Z,49.46
2022-08-03T07:00:09.958Z,49.26
2022-08-03T07:00:47.521Z,49.16
2022-08-03T07:01:47.755Z,49.04
2022-08-03T07:02:47.055Z,48.74
2022-08-03T07:03:52.522Z,48.65
2022-08-03T07:04:48.504Z,48.65
2022-08-03T07:05:47.777Z,48.42
2022-08-03T07:06:48.028Z,48.62
2022-08-03T07:07:48.291Z,48.52
2022-08-03T07:08:51.815Z,48.32
2022-08-03T07:09:56.861Z,48.42
2022-08-03T07:10:50.064Z,48.22
2022-08-03T07:11:49.285Z,48.10
2022-08-03T07:12:55.752Z,48.00
2022-08-03T07:13:50.777Z,48.10
2022-08-03T07:14:50.020Z,48.10
2022-08-03T07:15:55.240Z,48.00
2022-08-03T07:16:51.993Z,47.90
2022-08-03T07:17:50.836Z,47.80
2022-08-03T07:18:51.119Z,47.90
2022-08-03T07:19:51.392Z,48.08
2022-08-03T07:20:51.644Z,47.98
2022-08-03T07:21:51.886Z,47.78
2022-08-03T07:22:52.311Z,47.68
2022-08-03T07:23:52.507Z,47.78
2022-08-03T07:24:52.783Z,47.98
2022-08-03T07:25:53.035Z,47.88
2022-08-03T07:26:53.315Z,48.08
2022-08-03T07:27:53.543Z,48.18
2022-08-03T07:28:53.933Z,48.08
2022-08-03T07:29:54.159Z,48.05
2022-08-03T07:30:54.403Z,47.86
2022-08-03T07:31:54.641Z,47.86
2022-08-03T07:32:54.922Z,47.75
2022-08-03T07:33:55.205Z,47.36
2022-08-03T07:35:00.133Z,47.26
2022-08-03T07:35:56.725Z,47.24
2022-08-03T07:36:56.000Z,47.24
2022-08-03T07:37:56.242Z,47.04
2022-08-03T07:38:56.479Z,46.74
2022-08-03T07:39:56.783Z,46.45
2022-08-03T07:40:57.096Z,46.45
2022-08-03T07:41:57.338Z,46.45
2022-08-03T07:42:57.616Z,46.42
2022-08-03T07:43:57.820Z,46.12
2022-08-03T07:44:58.262Z,46.12
2022-08-03T07:45:58.510Z,46.12
2022-08-03T07:46:58.734Z,45.90
2022-08-03T07:47:59.071Z,45.81
2022-08-03T07:48:59.365Z,45.81
2022-08-03T07:49:59.622Z,45.61
2022-08-03T07:50:59.905Z,45.29
2022-08-03T07:52:00.161Z,45.39
2022-08-03T07:53:00.390Z,45.19
2022-08-03T07:54:00.643Z,44.90
2022-08-03T07:55:01.847Z,44.60
2022-08-03T07:56:01.248Z,44.78
2022-08-03T07:57:01.510Z,44.58
2022-08-03T07:58:01.818Z,44.58
2022-08-03T07:59:02.044Z,44.09
2022-08-03T08:00:02.920Z,43.69
2022-08-03T08:01:02.598Z,43.29
2022-08-03T08:02:02.803Z,43.88
2022-08-03T08:03:03.525Z,44.18
2022-08-03T08:04:03.445Z,44.09
2022-08-03T08:05:05.737Z,44.06
2022-08-03T08:06:04.011Z,43.96
2022-08-03T08:07:04.337Z,43.94
2022-08-03T08:08:04.624Z,43.25
2022-08-03T08:09:04.870Z,43.43
2022-08-03T08:10:05.110Z,43.01
2022-08-03T08:11:05.374Z,42.72
2022-08-03T08:12:05.596Z,42.30
2022-08-03T08:13:06.997Z,41.78
2022-08-03T08:14:06.150Z,41.47
2022-08-03T08:15:06.467Z,40.47
2022-08-03T08:16:06.679Z,40.17
2022-08-03T08:17:07.504Z,39.17
2022-08-03T08:18:07.131Z,39.15
2022-08-03T08:19:07.493Z,38.52
2022-08-03T08:20:07.754Z,37.58
2022-08-03T08:21:08.764Z,36.78
2022-08-03T08:22:08.229Z,36.25
2022-08-03T08:23:13.910Z,35.25
2022-08-03T08:24:13.358Z,34.94
2022-08-03T08:25:09.984Z,34.62
2022-08-03T08:26:09.279Z,34.13
2022-08-03T08:27:09.485Z,33.94
2022-08-03T08:28:29.926Z,33.33
2022-08-03T08:29:10.998Z,33.34
2022-08-03T08:30:12.304Z,33.54
2022-08-03T08:31:10.550Z,33.31
2022-08-03T08:32:10.782Z,32.50
2022-08-03T08:33:22.335Z,31.90
2022-08-03T08:34:12.278Z,31.79
2022-08-03T08:35:11.684Z,31.38
2022-08-03T08:36:15.178Z,31.19
2022-08-03T08:37:12.214Z,31.56
2022-08-03T08:38:12.558Z,31.17
2022-08-03T08:39:12.765Z,31.16
2022-08-03T08:40:13.070Z,30.75
2022-08-03T08:41:13.337Z,30.35
2022-08-03T08:42:13.591Z,29.96
2022-08-03T08:43:13.842Z,29.85
2022-08-03T08:44:14.106Z,29.64
2022-08-03T08:45:14.384Z,29.62
2022-08-03T08:46:23.154Z,29.24
2022-08-03T08:47:15.959Z,29.54
2022-08-03T08:48:15.291Z,29.33
2022-08-03T08:49:15.747Z,28.93
2022-08-03T08:50:27.091Z,29.12
2022-08-03T08:51:17.242Z,28.72
2022-08-03T08:52:29.619Z,28.81
2022-08-03T08:53:19.832Z,28.61
2022-08-03T08:54:18.095Z,28.40
2022-08-03T08:55:17.245Z,27.91
2022-08-03T08:56:17.467Z,27.54
2022-08-03T08:57:40.709Z,28.43
2022-08-03T08:58:20.868Z,28.22
2022-08-03T08:59:18.689Z,27.82
2022-08-03T09:00:18.747Z,27.92
2022-08-03T09:01:19.058Z,27.81
2022-08-03T09:02:19.767Z,27.62
2022-08-03T09:03:28.933Z,27.82
2022-08-03T09:04:21.343Z,27.51
2022-08-03T09:05:31.476Z,27.42
2022-08-03T09:06:21.366Z,27.42
2022-08-03T09:07:20.933Z,27.42
2022-08-03T09:08:20.932Z,27.61
2022-08-03T09:10:05.293Z,27.39
2022-08-03T09:10:22.539Z,26.90
2022-08-03T09:11:22.200Z,27.40
2022-08-03T09:12:41.208Z,27.50
2022-08-03T09:13:23.289Z,27.51
2022-08-03T09:14:35.219Z,27.39
2022-08-03T09:15:23.789Z,27.50
2022-08-03T09:16:23.049Z,27.50
2022-08-03T09:17:23.335Z,27.10
2022-08-03T09:18:23.602Z,26.78
2022-08-03T09:19:24.910Z,26.59
2022-08-03T09:20:24.177Z,26.79
2022-08-03T09:21:33.190Z,26.89
2022-08-03T09:22:25.644Z,26.59
2022-08-03T09:23:59.798Z,26.48
2022-08-03T09:24:40.798Z,26.28
2022-08-03T09:25:26.614Z,26.07
2022-08-03T09:26:26.791Z,25.78
2022-08-03T09:27:26.244Z,25.76
2022-08-03T09:28:53.883Z,26.09
2022-08-03T09:29:27.792Z,25.99
2022-08-03T09:30:34.087Z,26.20
2022-08-03T09:31:28.355Z,26.19
2022-08-03T09:32:27.707Z,26.18
2022-08-03T09:33:27.895Z,25.87
2022-08-03T09:34:29.173Z,25.78
2022-08-03T09:35:51.696Z,25.60
2022-08-03T09:36:29.658Z,25.99
2022-08-03T09:38:14.070Z,25.79
2022-08-03T09:38:30.158Z,26.08
2022-08-03T09:39:40.770Z,25.70
2022-08-03T09:40:30.658Z,25.78
2022-08-03T09:41:29.906Z,25.38
2022-08-03T09:42:30.179Z,25.27
2022-08-03T09:43:31.572Z,25.57
2022-08-03T09:44:30.762Z,25.68
2022-08-03T09:45:31.012Z,25.57
2022-08-03T09:46:31.276Z,25.26
2022-08-03T09:47:31.565Z,25.07
2022-08-03T09:48:31.761Z,25.16
2022-08-03T09:49:32.289Z,25.05
2022-08-03T09:50:32.376Z,24.85
2022-08-03T09:52:32.153Z,24.65
2022-08-03T09:52:50.127Z,24.55
2022-08-03T09:53:34.219Z,24.44
2022-08-03T09:54:33.490Z,24.14
2022-08-03T09:56:34.727Z,23.94
2022-08-03T09:56:37.118Z,23.65
2022-08-03T09:57:34.390Z,23.93
2022-08-03T09:58:34.630Z,24.04
2022-08-03T09:59:34.922Z,24.13
2022-08-03T10:00:35.155Z,24.03
2022-08-03T10:01:35.598Z,24.03
2022-08-03T10:02:35.728Z,24.03
2022-08-03T10:03:35.969Z,23.83
2022-08-03T10:04:37.215Z,23.73
2022-08-03T10:05:36.494Z,23.73
2022-08-03T10:06:36.776Z,23.93
2022-08-03T10:07:37.961Z,24.44
2022-08-03T10:08:38.280Z,24.74
2022-08-03T10:09:37.541Z,25.04
2022-08-03T10:10:37.757Z,25.04
2022-08-03T10:11:41.678Z,25.15
2022-08-03T10:12:38.333Z,25.24
2022-08-03T10:13:38.563Z,24.95
2022-08-03T10:14:38.907Z,24.74
2022-08-03T10:16:22.389Z,24.95
2022-08-03T10:16:40.478Z,25.66
2022-08-03T10:17:40.399Z,25.44
2022-08-03T10:18:39.875Z,25.24
2022-08-03T10:19:40.250Z,24.93
2022-08-03T10:20:40.610Z,24.82
2022-08-03T10:21:40.829Z,24.82
2022-08-03T10:22:41.100Z,24.62
2022-08-03T10:23:41.402Z,24.51
2022-08-03T10:24:41.664Z,24.22
2022-08-03T10:25:41.923Z,24.41
2022-08-03T10:26:49.987Z,24.30
2022-08-03T10:27:43.482Z,24.10
2022-08-03T10:28:45.276Z,23.88
2022-08-03T10:29:42.975Z,23.58
2022-08-03T10:30:43.251Z,23.58
2022-08-03T10:31:57.874Z,23.69
2022-08-03T10:32:44.766Z,23.91
2022-08-03T10:33:51.744Z,24.20
2022-08-03T10:34:45.292Z,24.29
2022-08-03T10:35:44.579Z,24.09
2022-08-03T10:36:44.895Z,23.90
2022-08-03T10:37:56.663Z,24.20
2022-08-03T10:38:46.398Z,24.21
2022-08-03T10:39:45.757Z,24.41
2022-08-03T10:40:49.607Z,25.02
2022-08-03T10:41:47.237Z,25.21
2022-08-03T10:42:50.200Z,25.10
2022-08-03T10:43:47.008Z,25.29
2022-08-03T10:44:47.432Z,25.49
2022-08-03T10:45:47.378Z,25.60
2022-08-03T10:46:47.618Z,26.21
2022-08-03T10:47:47.927Z,26.31
2022-08-03T10:48:48.183Z,26.43
2022-08-03T10:49:48.479Z,26.51
2022-08-03T10:50:48.701Z,26.51
2022-08-03T10:51:48.962Z,26.31
2022-08-03T10:52:50.206Z,25.90
2022-08-03T10:53:55.197Z,25.40
2022-08-03T10:54:50.771Z,25.39
2022-08-03T10:55:50.007Z,24.99
2022-08-03T10:56:50.513Z,25.40
2022-08-03T10:57:52.472Z,25.49
2022-08-03T10:58:57.545Z,25.49
2022-08-03T10:59:52.158Z,25.59
2022-08-03T11:00:51.513Z,25.80
2022-08-03T11:01:58.075Z,25.69
2022-08-03T11:02:52.946Z,25.59
2022-08-03T11:03:52.239Z,25.18
2022-08-03T11:04:52.502Z,25.09
2022-08-03T11:05:52.744Z,25.59
2022-08-03T11:06:52.955Z,25.58
2022-08-03T11:07:54.574Z,25.47
2022-08-03T11:08:53.578Z,25.78
2022-08-03T11:09:53.813Z,25.57
2022-08-03T11:10:54.072Z,25.26
2022-08-03T11:11:54.320Z,25.56
2022-08-03T11:12:54.556Z,25.56
2022-08-03T11:13:54.899Z,25.78
2022-08-03T11:14:55.157Z,26.58
2022-08-03T11:15:59.729Z,27.92
2022-08-03T11:16:56.706Z,28.72
2022-08-03T11:17:56.317Z,28.29
2022-08-03T11:18:56.218Z,27.78
2022-08-03T11:19:58.159Z,27.28
2022-08-03T11:20:56.903Z,26.87
2022-08-03T11:21:57.176Z,26.67
2022-08-03T11:22:57.441Z,27.08
2022-08-03T11:24:03.240Z,27.27
2022-08-03T11:24:58.990Z,27.16
2022-08-03T11:25:58.304Z,27.15
2022-08-03T11:27:00.913Z,26.84
2022-08-03T11:27:58.746Z,26.35
2022-08-03T11:28:58.987Z,26.65
2022-08-03T11:29:59.257Z,26.56
2022-08-03T11:30:59.557Z,26.56
2022-08-03T11:31:59.782Z,26.56
2022-08-03T11:33:00.001Z,26.46
2022-08-03T11:34:00.274Z,26.56
2022-08-03T11:35:00.536Z,27.06
2022-08-03T11:36:00.928Z,27.46
2022-08-03T11:37:01.173Z,27.37
2022-08-03T11:38:04.861Z,27.78
2022-08-03T11:39:01.786Z,28.08
2022-08-03T11:40:02.819Z,28.28
2022-08-03T11:41:02.294Z,28.16
2022-08-03T11:42:02.568Z,27.89
2022-08-03T11:43:02.842Z,27.87
2022-08-03T11:44:03.182Z,27.56
2022-08-03T11:45:03.586Z,27.46
2022-08-03T11:46:03.661Z,27.49
2022-08-03T11:47:03.978Z,28.81
2022-08-03T11:48:04.203Z,29.83
2022-08-03T11:49:09.506Z,29.84
2022-08-03T11:50:05.768Z,30.44
2022-08-03T11:51:04.916Z,30.95
2022-08-03T11:52:05.339Z,31.05
2022-08-03T11:53:05.570Z,31.05
2022-08-03T11:54:05.904Z,31.24
2022-08-03T11:55:06.071Z,31.08
2022-08-03T11:56:06.423Z,31.27
2022-08-03T11:57:07.708Z,31.27
2022-08-03T11:59:03.380Z,31.37
2022-08-03T11:59:19.866Z,31.27
2022-08-03T12:00:08.603Z,31.37
2022-08-03T12:01:07.836Z,31.37
2022-08-03T12:02:08.076Z,31.26
2022-08-03T12:03:08.410Z,31.87
2022-08-03T12:04:08.596Z,31.88
2022-08-03T12:05:08.958Z,32.08
2022-08-03T12:06:09.236Z,31.97
2022-08-03T12:07:09.485Z,31.97
2022-08-03T12:08:09.717Z,31.97
2022-08-03T12:09:10.066Z,32.28
2022-08-03T12:10:11.285Z,32.17
2022-08-03T12:11:10.535Z,31.87
2022-08-03T12:12:10.838Z,31.47
2022-08-03T12:14:35.602Z,31.57
2022-08-03T12:14:49.465Z,31.76
2022-08-03T12:15:12.629Z,31.97
2022-08-03T12:16:11.899Z,32.37
2022-08-03T12:17:12.223Z,32.47
2022-08-03T12:18:12.431Z,32.59
2022-08-03T12:19:12.700Z,32.29
2022-08-03T12:20:12.955Z,32.02
2022-08-03T12:21:13.187Z,32.52
2022-08-03T12:22:13.440Z,32.73
2022-08-03T12:23:13.652Z,32.63
2022-08-03T12:24:14.062Z,33.02
2022-08-03T12:25:14.254Z,32.91
2022-08-03T12:26:14.577Z,33.01
2022-08-03T12:27:15.012Z,32.91
2022-08-03T12:28:36.331Z,33.02
2022-08-03T12:29:16.394Z,33.22
2022-08-03T12:30:15.760Z,32.82
2022-08-03T12:31:16.455Z,33.02
2022-08-03T12:32:16.291Z,33.14
2022-08-03T12:33:16.609Z,33.33
2022-08-03T12:34:16.778Z,33.15
2022-08-03T12:35:17.032Z,33.23
2022-08-03T12:36:17.264Z,33.15
2022-08-03T12:37:21.822Z,33.64
2022-08-03T12:38:18.760Z,33.95
2022-08-03T12:39:18.037Z,33.75
2022-08-03T12:40:22.156Z,33.75
2022-08-03T12:41:19.569Z,33.85
2022-08-03T12:42:18.934Z,33.73
2022-08-03T12:43:19.140Z,33.73
2022-08-03T12:44:19.565Z,33.53
2022-08-03T12:45:19.743Z,33.43
2022-08-03T12:46:20.007Z,33.22
2022-08-03T12:47:20.512Z,33.22
2022-08-03T12:48:20.487Z,32.92
2022-08-03T12:49:20.825Z,32.94
2022-08-03T12:50:21.098Z,33.12
2022-08-03T12:51:21.818Z,33.14
2022-08-03T12:52:21.607Z,33.04
2022-08-03T12:53:21.831Z,33.43
2022-08-03T12:54:24.503Z,33.43
2022-08-03T12:55:22.368Z,33.64
2022-08-03T12:56:22.609Z,33.73